Time;durP1;ratioP1;P1;durP2;ratioP2;P2;SDS_P1;SDS_P2;PMS_P1;PMS_P2;Temp;Humidity;BMP_temperature;BMP_pressure;BME280_temperature;BME280_humidity;BME280_pressure;Samples;Min_cycle;Max_cycle;Signal;HPM_P1;HPM_P2
2022/01/15 00:07:05;;;;;;;19.20;4.80;;;;;;;-1.45;87.54;100227.61;444258;1270;142735;-66
2022/01/15 00:17:18;;;;;;;6.90;3.00;;;;;;;-1.56;87.52;100235.90;444849;1271;144455;-76
2022/01/15 00:27:25;;;;;;;15.30;3.80;;;;;;;-1.61;87.54;100246.56;437076;1271;142822;-73
2022/01/15 00:37:31;;;;;;;14.60;4.40;;;;;;;-1.75;87.85;100240.95;432303;1270;141690;-77
2022/01/15 00:47:37;;;;;;;13.60;4.00;;;;;;;-1.93;87.97;100232.58;447440;1270;143739;-75
2022/01/15 00:57:43;;;;;;;13.10;4.30;;;;;;;-1.91;88.42;100232.75;446722;1270;142079;-76
2022/01/15 01:07:50;;;;;;;10.10;3.80;;;;;;;-2.04;88.12;100236.22;447409;1271;142128;-71
2022/01/15 01:28:25;;;;;;;12.90;3.70;;;;;;;-2.16;88.40;100239.66;447481;1271;142537;-70
2022/01/15 01:38:36;;;;;;;13.40;3.30;;;;;;;-2.20;88.60;100242.23;439012;1271;144559;-71
2022/01/15 01:48:42;;;;;;;15.10;4.10;;;;;;;-2.18;88.59;100237.26;442908;1271;142472;-71
2022/01/15 01:58:48;;;;;;;10.30;4.20;;;;;;;-2.28;88.47;100235.90;447151;1271;142418;-71
2022/01/15 02:08:56;;;;;;;8.80;4.20;;;;;;;-2.37;88.60;100235.21;444596;1271;143402;-71
2022/01/15 02:19:02;;;;;;;12.00;3.80;;;;;;;-2.47;88.56;100235.05;430376;1271;143265;-73
2022/01/15 02:29:09;;;;;;;14.70;5.40;;;;;;;-2.62;88.68;100236.41;447244;1270;142013;-74
2022/01/15 02:39:15;;;;;;;6.30;3.30;;;;;;;-2.69;88.84;100236.41;445450;1272;145294;-74
2022/01/15 02:49:21;;;;;;;19.70;3.20;;;;;;;-2.74;88.88;100240.35;446875;1273;143145;-73
2022/01/15 02:59:27;;;;;;;8.50;3.30;;;;;;;-2.74;88.81;100239.33;444264;1271;142720;-73
2022/01/15 03:09:33;;;;;;;12.10;4.20;;;;;;;-2.85;88.86;100237.77;429636;1271;141307;-75
2022/01/15 03:19:39;;;;;;;10.60;3.90;;;;;;;-2.95;88.94;100238.95;442568;1272;141783;-74
2022/01/15 03:29:45;;;;;;;9.60;3.80;;;;;;;-3.10;89.01;100249.52;447392;1270;142622;-74
2022/01/15 03:39:51;;;;;;;11.10;3.30;;;;;;;-3.04;89.24;100234.65;446666;1271;141172;-74
2022/01/15 03:49:57;;;;;;;10.80;4.20;;;;;;;-3.09;89.42;100240.98;446956;1272;142528;-73
2022/01/15 04:00:05;;;;;;;15.20;3.90;;;;;;;-3.16;89.53;100246.26;439400;1272;141052;-73
2022/01/15 04:10:14;;;;;;;13.30;5.10;;;;;;;-3.22;89.58;100260.98;442379;1269;142391;-74
2022/01/15 04:20:23;;;;;;;9.60;4.50;;;;;;;-3.25;89.90;100266.11;447319;1271;142961;-74
2022/01/15 04:30:29;;;;;;;15.50;5.20;;;;;;;-3.10;90.22;100268.38;442985;1271;142958;-73
2022/01/15 04:40:34;;;;;;;10.20;4.00;;;;;;;-3.08;90.22;100290.13;437664;1271;142601;-76
2022/01/15 04:50:41;;;;;;;10.20;5.40;;;;;;;-3.06;90.21;100293.57;439628;1271;141797;-74
2022/01/15 05:00:47;;;;;;;23.70;5.50;;;;;;;-3.11;90.21;100286.52;446731;1271;141611;-75
2022/01/15 05:10:57;;;;;;;12.80;5.80;;;;;;;-3.17;90.24;100280.52;442244;1270;141597;-72
2022/01/15 05:21:03;;;;;;;15.00;5.00;;;;;;;-3.21;90.45;100284.27;444210;1271;142766;-72
2022/01/15 05:31:09;;;;;;;17.20;5.60;;;;;;;-3.26;90.38;100292.48;429443;1271;142088;-73
2022/01/15 05:41:15;;;;;;;10.90;4.60;;;;;;;-3.37;90.44;100297.73;433585;1270;141157;-72
2022/01/15 05:51:21;;;;;;;16.30;6.90;;;;;;;-3.51;90.59;100310.67;440567;1270;142468;-73
2022/01/15 06:01:27;;;;;;;13.80;7.00;;;;;;;-3.59;90.81;100322.44;447585;1270;144592;-72
2022/01/15 06:11:34;;;;;;;10.90;6.60;;;;;;;-3.56;90.94;100323.65;436952;1271;141601;-72
2022/01/15 06:21:40;;;;;;;14.10;5.90;;;;;;;-3.62;90.70;100331.15;446864;1269;142455;-73
2022/01/15 06:31:46;;;;;;;11.30;6.10;;;;;;;-3.55;91.08;100337.70;447591;1270;144415;-73
2022/01/15 06:41:53;;;;;;;14.30;5.40;;;;;;;-3.50;91.04;100350.05;440230;1269;141718;-72
2022/01/15 06:51:58;;;;;;;18.00;7.10;;;;;;;-3.58;90.85;100354.79;446219;1270;141689;-73
2022/01/15 07:02:07;;;;;;;19.60;9.20;;;;;;;-3.60;91.04;100361.80;447588;1269;142490;-73
2022/01/15 07:12:13;;;;;;;19.20;7.50;;;;;;;-3.50;91.16;100372.14;447608;1270;142055;-74
2022/01/15 07:22:19;;;;;;;16.20;8.40;;;;;;;-3.28;91.17;100375.34;437818;1269;141721;-72
2022/01/15 07:32:25;;;;;;;16.00;7.10;;;;;;;-2.79;91.49;100385.33;444392;1269;142192;-73
2022/01/15 07:42:35;;;;;;;18.80;6.80;;;;;;;-1.94;91.40;100395.77;439956;1268;141555;-74
2022/01/15 07:52:41;;;;;;;17.30;7.20;;;;;;;-0.65;90.41;100395.31;445328;1270;143737;-74
2022/01/15 08:02:47;;;;;;;15.20;5.90;;;;;;;0.89;89.06;100391.10;447609;1268;144107;-74
2022/01/15 08:12:53;;;;;;;15.40;7.50;;;;;;;2.59;86.73;100388.01;446768;1268;142092;-73
2022/01/15 08:22:59;;;;;;;19.90;7.50;;;;;;;3.41;84.89;100395.08;447644;1269;141741;-72
2022/01/15 08:33:05;;;;;;;17.20;8.10;;;;;;;3.99;83.25;100405.89;436469;1268;141108;-72
2022/01/15 08:43:10;;;;;;;15.10;8.90;;;;;;;4.93;81.64;100410.27;446558;1271;142675;-72
2022/01/15 08:53:17;;;;;;;13.90;6.50;;;;;;;4.94;80.10;100410.61;443857;1270;142028;-72
2022/01/15 09:03:23;;;;;;;14.90;7.00;;;;;;;5.06;78.88;100411.84;446836;1270;142599;-71
2022/01/15 09:13:29;;;;;;;10.90;6.00;;;;;;;4.63;77.73;100420.64;447736;1269;143444;-72
2022/01/15 09:23:35;;;;;;;13.20;6.80;;;;;;;4.30;77.23;100414.33;442953;1270;145320;-73
2022/01/15 09:33:43;;;;;;;8.60;5.70;;;;;;;6.20;76.01;100414.48;439624;1270;141455;-74
2022/01/15 09:43:50;;;;;;;13.50;6.70;;;;;;;6.94;73.94;100413.39;438045;1271;145768;-72
2022/01/15 09:53:57;;;;;;;13.10;7.40;;;;;;;4.56;74.38;100428.20;447317;1270;141757;-71
2022/01/15 10:04:03;;;;;;;16.20;6.30;;;;;;;3.54;75.64;100431.33;445260;1270;141795;-70
2022/01/15 10:14:25;;;;;;;15.00;8.10;;;;;;;3.00;75.86;100428.60;447368;1271;142515;-70
2022/01/15 10:24:31;;;;;;;17.30;8.30;;;;;;;2.48;76.44;100420.70;446673;1270;144192;-64
2022/01/15 10:34:37;;;;;;;19.10;8.90;;;;;;;2.12;76.86;100421.13;447418;1270;141713;-63
2022/01/15 10:44:45;;;;;;;11.70;7.70;;;;;;;1.82;77.26;100420.89;443245;1270;142001;-63
2022/01/15 10:55:02;;;;;;;12.40;7.50;;;;;;;1.51;77.56;100427.34;440659;1269;142661;-72
2022/01/15 11:05:41;;;;;;;12.20;7.10;;;;;;;1.26;78.02;100426.28;447476;1270;142667;-71
2022/01/15 11:15:49;;;;;;;18.50;7.60;;;;;;;1.08;78.33;100426.49;446576;1270;144330;-73
2022/01/15 11:25:57;;;;;;;14.80;7.00;;;;;;;0.96;78.50;100428.85;447414;1270;143443;-73
2022/01/15 11:36:04;;;;;;;14.90;7.40;;;;;;;0.98;78.41;100427.98;447637;1269;143786;-73
2022/01/15 11:46:25;;;;;;;16.10;9.20;;;;;;;0.95;78.41;100425.59;443117;1271;187649;-73
2022/01/15 11:56:39;;;;;;;11.60;6.50;;;;;;;0.83;78.36;100423.48;447435;1270;141466;-71
2022/01/15 12:07:19;;;;;;;20.50;8.40;;;;;;;0.91;78.56;100417.36;446863;1270;142770;-71
2022/01/15 12:17:31;;;;;;;16.00;7.80;;;;;;;1.08;78.58;100422.86;442900;1270;141373;-70
2022/01/15 12:27:37;;;;;;;20.00;8.80;;;;;;;1.11;78.44;100413.00;438304;1270;141050;-70
2022/01/15 12:37:55;;;;;;;20.30;9.90;;;;;;;0.99;78.14;100413.84;433023;1270;141640;-70
2022/01/15 12:48:01;;;;;;;18.30;9.10;;;;;;;0.99;78.53;100403.30;447679;1270;142866;-69
2022/01/15 12:58:13;;;;;;;24.00;10.60;;;;;;;1.03;78.22;100399.46;436592;1270;142753;-69
2022/01/15 13:08:22;;;;;;;14.30;8.70;;;;;;;0.93;78.02;100410.79;431610;1270;142391;-70
2022/01/15 13:18:30;;;;;;;14.00;9.10;;;;;;;0.82;78.11;100408.84;432176;1270;140922;-70
2022/01/15 13:28:38;;;;;;;16.60;9.70;;;;;;;0.78;78.20;100403.55;433937;1270;140828;-70
2022/01/15 13:38:46;;;;;;;14.30;8.90;;;;;;;0.81;78.21;100402.64;433070;1270;141786;-69
2022/01/15 13:48:54;;;;;;;21.50;9.00;;;;;;;0.81;78.27;100407.80;431012;1271;141018;-69
2022/01/15 13:59:03;;;;;;;20.90;9.20;;;;;;;0.70;78.27;100410.17;431860;1271;141795;-68
2022/01/15 14:09:15;;;;;;;14.90;7.90;;;;;;;0.47;78.39;100410.73;431694;1271;140530;-71
2022/01/15 14:19:49;;;;;;;16.50;9.60;;;;;;;0.23;78.59;100423.86;434167;1270;141481;-69
2022/01/15 14:29:56;;;;;;;17.90;8.60;;;;;;;0.04;78.99;100426.58;431426;1271;142056;-70
2022/01/15 14:40:02;;;;;;;26.40;11.30;;;;;;;-0.10;79.54;100425.30;430709;1270;141786;-70
2022/01/15 14:50:10;;;;;;;22.30;11.70;;;;;;;-0.30;79.46;100418.88;431084;1270;141467;-70
2022/01/15 15:00:17;;;;;;;18.80;10.40;;;;;;;-0.51;79.49;100420.89;433301;1270;144249;-62
2022/01/15 15:10:21;;;;;;;;;;;;;;;-0.84;79.92;100428.59;434641;1270;141334;-64
2022/01/15 15:20:27;;;;;;;20.70;11.50;;;;;;;-1.14;80.29;100440.54;430844;1270;127678;-65
2022/01/15 15:30:34;;;;;;;22.40;12.50;;;;;;;-1.39;80.48;100440.05;431980;1270;142426;-68
2022/01/15 15:40:40;;;;;;;30.30;13.60;;;;;;;-1.72;80.89;100441.11;431801;1271;141941;-68
2022/01/15 15:50:47;;;;;;;30.50;17.80;;;;;;;-2.06;81.46;100451.02;432236;1271;141965;-69
2022/01/15 16:00:55;;;;;;;32.90;18.40;;;;;;;-2.36;81.95;100460.91;431497;1271;141693;-69
2022/01/15 16:11:01;;;;;;;42.50;20.10;;;;;;;-2.53;82.63;100464.45;432914;1271;142654;-68
2022/01/15 16:21:07;;;;;;;32.90;19.70;;;;;;;-2.73;83.26;100469.69;431871;1271;141586;-68
2022/01/15 16:31:13;;;;;;;41.00;23.10;;;;;;;-2.92;83.86;100467.86;435168;1271;142283;-67
2022/01/15 16:41:20;;;;;;;44.30;20.70;;;;;;;-3.05;84.47;100478.41;431251;1271;142335;-63
2022/01/15 16:51:26;;;;;;;39.90;22.40;;;;;;;-3.14;84.89;100482.82;443472;1270;142468;-67
2022/01/15 17:01:32;;;;;;;41.90;24.60;;;;;;;-3.22;85.06;100493.70;432684;1270;142233;-69
2022/01/15 17:11:38;;;;;;;34.20;21.80;;;;;;;-3.36;85.23;100496.69;431272;1269;143655;-69
2022/01/15 17:21:44;;;;;;;42.30;21.00;;;;;;;-3.41;85.85;100498.38;430513;1270;141590;-68
2022/01/15 17:31:50;;;;;;;42.20;22.90;;;;;;;-3.54;85.96;100498.45;431692;1270;142563;-64
2022/01/15 17:41:57;;;;;;;42.60;24.30;;;;;;;-3.64;86.21;100503.31;430905;1271;142571;-61
2022/01/15 17:52:03;;;;;;;37.40;23.30;;;;;;;-3.80;86.24;100505.73;430786;1271;141911;-61
2022/01/15 18:02:09;;;;;;;42.70;24.70;;;;;;;-3.79;86.80;100495.82;432030;1271;142981;-59
2022/01/15 18:12:14;;;;;;;;;;;;;;;-3.47;87.66;100493.53;431614;1271;145911;-60
2022/01/15 18:22:20;;;;;;;48.90;29.00;;;;;;;-3.07;87.79;100482.69;430825;1271;128251;-60
2022/01/15 18:32:25;;;;;;;;;;;;;;;-2.67;87.80;100483.75;432499;1270;141313;-60
2022/01/15 18:42:31;;;;;;;39.00;25.80;;;;;;;-2.34;87.51;100488.00;430006;1270;129257;-60
2022/01/15 18:52:38;;;;;;;46.80;24.80;;;;;;;-2.10;87.08;100484.48;431781;1270;141782;-60
2022/01/15 19:02:46;;;;;;;39.20;24.00;;;;;;;-1.96;86.51;100505.29;432867;1270;142323;-63
2022/01/15 19:12:53;;;;;;;40.80;25.60;;;;;;;-1.85;86.20;100557.30;433022;1270;142509;-61
2022/01/15 19:22:59;;;;;;;44.40;24.40;;;;;;;-1.82;85.91;100475.09;433688;1270;141416;-61
2022/01/15 19:33:07;;;;;;;46.60;26.50;;;;;;;-1.97;85.68;100511.62;431850;1270;141286;-62
2022/01/15 19:43:13;;;;;;;37.60;24.00;;;;;;;-2.01;85.66;100470.94;431254;1270;142305;-61
2022/01/15 19:53:20;;;;;;;41.90;24.70;;;;;;;-2.03;85.57;100410.19;432473;1270;142002;-60
2022/01/15 20:03:25;;;;;;;;;;;;;;;-2.03;85.38;100461.33;430649;1270;141772;-60
2022/01/15 20:13:31;;;;;;;45.50;25.50;;;;;;;-2.08;85.49;100495.81;431619;1270;127754;-60
2022/01/15 20:23:37;;;;;;;42.40;26.00;;;;;;;-2.04;85.39;100449.83;430544;1270;142930;-60
2022/01/15 20:33:43;;;;;;;42.00;27.40;;;;;;;-2.03;85.35;100423.40;432259;1270;141778;-61
2022/01/15 20:43:49;;;;;;;38.70;24.00;;;;;;;-2.13;85.08;100440.03;434001;1270;141704;-61
2022/01/15 20:53:55;;;;;;;38.30;22.10;;;;;;;-2.19;84.98;100454.60;431853;1270;142437;-61
2022/01/15 21:04:01;;;;;;;39.70;24.00;;;;;;;-2.26;84.91;100462.48;435288;1270;142049;-60
2022/01/15 21:14:06;;;;;;;;;;;;;;;-2.33;84.74;100468.46;432000;1270;142911;-61
2022/01/15 21:24:12;;;;;;;35.60;22.20;;;;;;;-2.37;85.01;100479.93;430595;1270;128119;-61
2022/01/15 21:34:38;;;;;;;40.10;23.00;;;;;;;-2.32;84.91;100470.01;431686;1270;142091;-60
2022/01/15 21:44:45;;;;;;;46.80;27.00;;;;;;;-2.37;84.92;100447.70;432466;1270;143911;-60
2022/01/15 21:55:00;;;;;;;40.20;24.20;;;;;;;-2.41;84.95;100442.02;431134;1270;141024;-61
2022/01/15 22:05:07;;;;;;;42.80;24.90;;;;;;;-2.42;84.91;100457.45;430969;1270;142595;-61
2022/01/15 22:15:15;;;;;;;40.70;25.30;;;;;;;-2.43;84.85;100469.97;430553;1268;143775;-60
2022/01/15 22:25:21;;;;;;;50.40;28.40;;;;;;;-2.46;84.88;100475.63;430797;1270;141342;-61
2022/01/15 22:35:27;;;;;;;31.80;18.60;;;;;;;-2.64;84.63;100473.14;432516;1270;142505;-61
2022/01/15 22:45:36;;;;;;;46.00;25.30;;;;;;;-2.64;84.91;100467.49;430327;1270;141265;-61
2022/01/15 22:55:43;;;;;;;44.70;25.50;;;;;;;-2.77;84.73;100456.11;432594;1270;141641;-60
2022/01/15 23:05:51;;;;;;;48.60;27.00;;;;;;;-2.93;84.82;100446.61;432298;1270;142396;-63
2022/01/15 23:16:05;;;;;;;43.20;27.50;;;;;;;-2.97;85.11;100431.17;430422;1270;141996;-62
2022/01/15 23:26:11;;;;;;;41.40;25.30;;;;;;;-2.99;85.12;100428.77;429468;1273;142441;-61
2022/01/15 23:36:17;;;;;;;44.20;23.70;;;;;;;-2.99;85.24;100424.83;431251;1273;141898;-61
2022/01/15 23:46:43;;;;;;;37.70;23.30;;;;;;;-3.02;85.15;100418.64;431602;1273;209070;-61
2022/01/15 23:56:49;;;;;;;32.80;22.00;;;;;;;-3.13;85.09;100394.60;435956;1273;141716;-61
